Molins de Rei, Spain
Current Conditions -  °F | °C
As of 4:30 AM on Monday 24 Nov 2014 (Local Time) from LEBL Reporting Station
Light Rain Light Rain  
Wind Chill: 64°   Ceiling: Unl
Heat Index: 64°   Visibility: 6mi
Dew Point: 59°   Wind: 8mph
Humidity: 83%   Direction: 320°NW
Pressure: 30"   Gusts: NA
Location:  41.42°N, 2.02°E
Report Text: LEBL 240330Z 32007KT 9999 -RA FEW010 18/15 Q1016 NOSIG
Loading
Personal Weather Stations






























Interactive Weather Map New forecast layout! Learn more

10-Day Weather Forecast

Advertisements
Track Severe Weather on mobile